Time;durP1;ratioP1;P1;durP2;ratioP2;P2;SDS_P1;SDS_P2;PMS_P1;PMS_P2;Temp;Humidity;BMP_temperature;BMP_pressure;BME280_temperature;BME280_humidity;BME280_pressure;Samples;Min_cycle;Max_cycle;Signal;HPM_P1;HPM_P2
2022/01/25 00:10:03;;;;;;;;;;;2.10;94.40;;;;;;5065805;28;19943;-79
2022/01/25 00:15:31;;;;;;;;;;;2.00;94.40;;;;;;5065300;28;19939;-81
2022/01/25 00:26:20;;;;;;;;;;;1.90;94.40;;;;;;5064425;28;20133;-80
2022/01/25 00:28:49;;;;;;;;;;;2.00;94.40;;;;;;5075308;28;19949;-81
2022/01/25 00:31:17;;;;;;;;;;;1.90;94.40;;;;;;5068228;28;19929;-81
2022/01/25 00:33:44;;;;;;;;;;;1.90;94.40;;;;;;5065249;28;19928;-81
2022/01/25 00:36:12;;;;;;;;;;;1.90;94.40;;;;;;5067937;28;19972;-81
2022/01/25 00:38:40;;;;;;;;;;;1.80;94.40;;;;;;5069801;28;19990;-82
2022/01/25 00:41:07;;;;;;;;;;;1.80;94.40;;;;;;5073399;28;19974;-81
2022/01/25 00:43:33;;;;;;;;;;;1.80;94.40;;;;;;5063329;28;19929;-80
2022/01/25 00:46:04;;;;;;;;;;;1.80;94.40;;;;;;5066144;28;19928;-81
2022/01/25 00:48:41;;;;;;;;;;;1.80;94.40;;;;;;5065209;28;20015;-81
2022/01/25 00:51:19;;;;;;;;;;;1.80;94.40;;;;;;5062967;28;20302;-81
2022/01/25 00:53:56;;;;;;;;;;;1.70;94.40;;;;;;5065206;28;19939;-81
2022/01/25 00:56:22;;;;;;;;;;;1.80;94.40;;;;;;5067920;28;19928;-81
2022/01/25 00:58:49;;;;;;;;;;;1.70;94.40;;;;;;5073270;28;19933;-80
2022/01/25 01:01:16;;;;;;;;;;;1.70;94.40;;;;;;5066504;28;19958;-80
2022/01/25 01:03:43;;;;;;;;;;;1.70;94.40;;;;;;5063943;28;20305;-81
2022/01/25 01:06:09;;;;;;;;;;;1.70;94.40;;;;;;5066336;28;19928;-81
2022/01/25 01:08:36;;;;;;;;;;;1.70;94.40;;;;;;5066524;28;20305;-81
2022/01/25 01:11:08;;;;;;;;;;;1.70;94.40;;;;;;5066199;28;19928;-80
2022/01/25 01:13:57;;;;;;;;;;;1.60;94.40;;;;;;5066896;28;19974;-81
2022/01/25 01:30:34;;;;;;;;;;;1.50;94.40;;;;;;5072352;28;20002;-82
2022/01/25 01:33:28;;;;;;;;;;;1.50;94.50;;;;;;5070138;28;20018;-80
2022/01/25 01:41:45;;;;;;;;;;;1.50;94.50;;;;;;5064052;28;19936;-81
2022/01/25 01:44:20;;;;;;;;;;;1.50;94.50;;;;;;5067794;28;19975;-80
2022/01/25 01:47:00;;;;;;;;;;;1.50;94.50;;;;;;5070309;28;19935;-80
2022/01/25 01:49:29;;;;;;;;;;;1.40;94.50;;;;;;5068836;28;20299;-81
2022/01/25 01:51:55;;;;;;;;;;;1.40;94.50;;;;;;5065150;28;19985;-82
2022/01/25 01:54:22;;;;;;;;;;;1.40;94.50;;;;;;5068585;28;20061;-82
2022/01/25 01:56:50;;;;;;;;;;;1.40;94.50;;;;;;5070176;28;19935;-81
2022/01/25 01:59:17;;;;;;;;;;;1.40;94.60;;;;;;5072343;28;20316;-81
2022/01/25 02:01:46;;;;;;;;;;;1.40;94.60;;;;;;5069739;28;19935;-81
2022/01/25 02:04:13;;;;;;;;;;;1.40;94.60;;;;;;5065661;28;19928;-81
2022/01/25 02:06:40;;;;;;;;;;;1.30;94.50;;;;;;5075805;28;19939;-81
2022/01/25 02:09:07;;;;;;;;;;;1.30;94.60;;;;;;5069545;28;19928;-80
2022/01/25 02:11:34;;;;;;;;;;;1.30;94.60;;;;;;5073886;28;19932;-81
2022/01/25 02:14:05;;;;;;;;;;;1.30;94.50;;;;;;5074087;28;20407;-80
2022/01/25 02:16:40;;;;;;;;;;;1.30;94.50;;;;;;5069073;28;20539;-82
2022/01/25 02:24:39;;;;;;;;;;;1.30;94.60;;;;;;5061073;28;19978;-82
2022/01/25 02:27:06;;;;;;;;;;;1.30;94.60;;;;;;5071688;28;19928;-81
2022/01/25 02:29:33;;;;;;;;;;;1.20;94.50;;;;;;5070093;28;19935;-81
2022/01/25 02:31:59;;;;;;;;;;;1.20;94.50;;;;;;5068330;28;19932;-82
2022/01/25 02:34:26;;;;;;;;;;;1.20;94.50;;;;;;5066941;28;20351;-82
2022/01/25 02:36:57;;;;;;;;;;;1.20;94.50;;;;;;5072232;28;19928;-82
2022/01/25 02:39:24;;;;;;;;;;;1.20;94.50;;;;;;5072498;28;20479;-81
2022/01/25 02:41:51;;;;;;;;;;;1.20;94.50;;;;;;5072594;28;19928;-82
2022/01/25 02:44:23;;;;;;;;;;;1.20;94.50;;;;;;5069295;28;19974;-84
2022/01/25 02:49:36;;;;;;;;;;;1.10;94.50;;;;;;5064934;28;20447;-81
2022/01/25 02:52:04;;;;;;;;;;;1.10;94.50;;;;;;5068299;28;19939;-85
2022/01/25 02:54:31;;;;;;;;;;;1.10;94.50;;;;;;5068270;28;19936;-86
2022/01/25 02:56:58;;;;;;;;;;;1.10;94.60;;;;;;5075039;28;19928;-85
2022/01/25 02:59:26;;;;;;;;;;;1.10;94.60;;;;;;5073270;28;20432;-84
2022/01/25 03:01:53;;;;;;;;;;;1.10;94.60;;;;;;5070518;28;19958;-87
2022/01/25 03:04:20;;;;;;;;;;;1.10;94.60;;;;;;5070418;28;19969;-85
2022/01/25 03:06:47;;;;;;;;;;;1.10;94.60;;;;;;5080015;28;19928;-84
2022/01/25 03:09:15;;;;;;;;;;;1.00;94.60;;;;;;5070323;28;19938;-84
2022/01/25 03:11:43;;;;;;;;;;;1.00;94.60;;;;;;5075595;28;19929;-85
2022/01/25 03:14:11;;;;;;;;;;;1.00;94.60;;;;;;5069142;28;19980;-84
2022/01/25 03:16:42;;;;;;;;;;;1.00;94.60;;;;;;5075769;28;19928;-84
2022/01/25 03:21:50;;;;;;;;;;;1.00;94.70;;;;;;5077258;28;19932;-84
2022/01/25 03:24:18;;;;;;;;;;;1.00;94.60;;;;;;5074375;28;19992;-85
2022/01/25 03:26:45;;;;;;;;;;;0.90;94.60;;;;;;5067986;28;19932;-86
2022/01/25 03:29:12;;;;;;;;;;;0.90;94.60;;;;;;5073756;28;19928;-85
2022/01/25 03:31:38;;;;;;;;;;;0.90;94.60;;;;;;5077296;28;19928;-85
2022/01/25 03:34:05;;;;;;;;;;;0.90;94.60;;;;;;5073443;28;19935;-85
2022/01/25 03:36:31;;;;;;;;;;;0.90;94.60;;;;;;5084043;28;20350;-87
2022/01/25 03:38:58;;;;;;;;;;;0.90;94.60;;;;;;5072240;28;19934;-86
2022/01/25 03:41:26;;;;;;;;;;;0.90;94.60;;;;;;5075077;28;19928;-88
2022/01/25 03:43:55;;;;;;;;;;;0.80;94.60;;;;;;5073880;28;19929;-87
2022/01/25 03:46:29;;;;;;;;;;;0.80;94.60;;;;;;5075746;28;20488;-85
2022/01/25 03:51:40;;;;;;;;;;;0.80;94.60;;;;;;5071910;28;19931;-84
2022/01/25 03:54:06;;;;;;;;;;;0.80;94.60;;;;;;5073742;28;20288;-85
2022/01/25 03:56:35;;;;;;;;;;;0.80;94.60;;;;;;5068742;28;19928;-85
2022/01/25 03:59:02;;;;;;;;;;;0.80;94.60;;;;;;5067196;28;19990;-85
2022/01/25 04:01:29;;;;;;;;;;;0.70;94.60;;;;;;5072672;28;19935;-84
2022/01/25 04:04:00;;;;;;;;;;;0.70;94.60;;;;;;5068172;28;19939;-84
2022/01/25 04:06:30;;;;;;;;;;;0.70;94.70;;;;;;5073452;28;20093;-84
2022/01/25 04:08:57;;;;;;;;;;;0.70;94.70;;;;;;5071392;28;19928;-86
2022/01/25 04:11:23;;;;;;;;;;;0.70;94.70;;;;;;5071611;28;19964;-86
2022/01/25 04:13:53;;;;;;;;;;;0.70;94.70;;;;;;5073861;28;19928;-85
2022/01/25 04:16:24;;;;;;;;;;;0.70;94.70;;;;;;5072605;28;19944;-85
2022/01/25 04:19:01;;;;;;;;;;;0.70;94.70;;;;;;5070982;28;19928;-86
2022/01/25 04:21:45;;;;;;;;;;;0.60;94.70;;;;;;5075449;28;19971;-84
2022/01/25 04:26:56;;;;;;;;;;;0.60;94.70;;;;;;5075836;28;20105;-85
2022/01/25 04:29:25;;;;;;;;;;;0.60;94.70;;;;;;5076805;28;19929;-83
2022/01/25 04:31:52;;;;;;;;;;;0.60;94.70;;;;;;5069700;28;19951;-84
2022/01/25 04:34:38;;;;;;;;;;;0.60;94.70;;;;;;5075781;28;19928;-83
2022/01/25 04:51:05;;;;;;;;;;;0.50;94.70;;;;;;5072952;28;20073;-83
2022/01/25 04:53:41;;;;;;;;;;;0.50;94.70;;;;;;5072094;28;20040;-86
2022/01/25 04:56:14;;;;;;;;;;;0.50;94.70;;;;;;5069750;28;19933;-83
2022/01/25 04:58:47;;;;;;;;;;;0.50;94.70;;;;;;5076637;28;19928;-83
2022/01/25 05:01:17;;;;;;;;;;;0.50;94.70;;;;;;5071727;28;20463;-83
2022/01/25 05:03:55;;;;;;;;;;;0.40;94.70;;;;;;5070819;28;19974;-83
2022/01/25 05:06:22;;;;;;;;;;;0.40;94.70;;;;;;5079368;28;20388;-83
2022/01/25 05:08:49;;;;;;;;;;;0.40;94.70;;;;;;5073453;28;20055;-84
2022/01/25 05:11:24;;;;;;;;;;;0.40;94.70;;;;;;5069526;28;20448;-83
2022/01/25 05:13:55;;;;;;;;;;;0.40;94.70;;;;;;5073370;28;19939;-84
2022/01/25 05:16:30;;;;;;;;;;;0.40;94.70;;;;;;5067286;28;19964;-83
2022/01/25 05:19:05;;;;;;;;;;;0.40;94.70;;;;;;5075080;28;19935;-84
2022/01/25 05:24:16;;;;;;;;;;;0.40;94.70;;;;;;5072292;28;19939;-84
2022/01/25 05:26:43;;;;;;;;;;;0.40;94.70;;;;;;5076878;28;19924;-81
2022/01/25 05:29:10;;;;;;;;;;;0.40;94.70;;;;;;5072106;28;19940;-83
2022/01/25 05:31:39;;;;;;;;;;;0.40;94.80;;;;;;5072405;28;20600;-84
2022/01/25 05:34:08;;;;;;;;;;;0.40;94.80;;;;;;5074377;28;19928;-83
2022/01/25 05:36:34;;;;;;;;;;;0.40;94.80;;;;;;5076475;28;19928;-86
2022/01/25 05:39:06;;;;;;;;;;;0.30;94.80;;;;;;5077510;28;19924;-85
2022/01/25 05:41:33;;;;;;;;;;;0.40;94.80;;;;;;5075485;28;19929;-84
2022/01/25 05:46:52;;;;;;;;;;;0.30;94.80;;;;;;5071032;28;19970;-85
2022/01/25 05:49:19;;;;;;;;;;;0.30;94.80;;;;;;5071403;28;19929;-82
2022/01/25 05:51:46;;;;;;;;;;;0.40;94.80;;;;;;5080556;28;20504;-84
2022/01/25 05:54:12;;;;;;;;;;;0.30;94.80;;;;;;5071324;28;20498;-83
2022/01/25 05:56:39;;;;;;;;;;;0.40;94.90;;;;;;5073171;28;19931;-82
2022/01/25 05:59:05;;;;;;;;;;;0.30;94.80;;;;;;5074898;28;19928;-84
2022/01/25 06:01:34;;;;;;;;;;;0.30;94.80;;;;;;5068030;28;20674;-83
2022/01/25 06:04:03;;;;;;;;;;;0.30;94.90;;;;;;5069717;28;19933;-83
2022/01/25 06:06:30;;;;;;;;;;;0.40;94.90;;;;;;5075823;28;20406;-82
2022/01/25 06:08:56;;;;;;;;;;;0.30;94.90;;;;;;5079331;28;21084;-83
2022/01/25 06:11:23;;;;;;;;;;;0.40;94.90;;;;;;5077337;28;19928;-85
2022/01/25 06:13:52;;;;;;;;;;;0.40;94.90;;;;;;5081008;28;19932;-84
2022/01/25 06:16:18;;;;;;;;;;;0.40;94.90;;;;;;5077873;28;19924;-82
2022/01/25 06:18:45;;;;;;;;;;;0.40;94.90;;;;;;5069909;28;19984;-81
2022/01/25 06:21:13;;;;;;;;;;;0.40;94.90;;;;;;5073325;28;19928;-81
2022/01/25 06:23:39;;;;;;;;;;;0.40;95.00;;;;;;5066332;28;20454;-82
2022/01/25 06:26:06;;;;;;;;;;;0.40;95.40;;;;;;5071218;28;19998;-83
2022/01/25 06:28:33;;;;;;;;;;;0.40;95.20;;;;;;5072396;28;19933;-81
2022/01/25 06:30:59;;;;;;;;;;;0.40;95.20;;;;;;5076383;28;22320;-80
2022/01/25 06:33:26;;;;;;;;;;;0.40;95.30;;;;;;5068541;28;20327;-81
2022/01/25 06:35:52;;;;;;;;;;;0.40;95.30;;;;;;5073716;28;20774;-81
2022/01/25 06:38:20;;;;;;;;;;;0.40;95.30;;;;;;5078789;28;20316;-81
2022/01/25 06:40:47;;;;;;;;;;;0.40;95.30;;;;;;5077766;28;20358;-78
2022/01/25 06:43:13;;;;;;;;;;;0.40;95.30;;;;;;5070502;28;19932;-81
2022/01/25 06:45:41;;;;;;;;;;;0.40;95.30;;;;;;5079502;28;20430;-81
2022/01/25 06:48:08;;;;;;;;;;;0.40;95.30;;;;;;5064990;28;19928;-81
2022/01/25 06:50:35;;;;;;;;;;;0.40;95.30;;;;;;5077158;28;19981;-81
2022/01/25 06:53:01;;;;;;;;;;;0.40;95.30;;;;;;5065465;28;20375;-81
2022/01/25 06:55:29;;;;;;;;;;;0.40;95.30;;;;;;5062627;28;19933;-81
2022/01/25 06:57:56;;;;;;;;;;;0.40;95.30;;;;;;5068978;28;20335;-81
2022/01/25 07:00:23;;;;;;;;;;;0.40;95.30;;;;;;5066117;28;20744;-81
2022/01/25 07:02:50;;;;;;;;;;;0.40;95.30;;;;;;5064756;28;19928;-82
2022/01/25 07:05:17;;;;;;;;;;;0.40;95.30;;;;;;5068561;28;19934;-82
2022/01/25 07:07:44;;;;;;;;;;;0.40;95.30;;;;;;5065235;28;19928;-81
2022/01/25 07:10:11;;;;;;;;;;;0.50;95.30;;;;;;5062431;28;19929;-79
2022/01/25 07:12:38;;;;;;;;;;;0.50;95.30;;;;;;5072393;28;19932;-81
2022/01/25 07:15:06;;;;;;;;;;;0.50;95.30;;;;;;5060339;28;19936;-80
2022/01/25 07:17:32;;;;;;;;;;;0.50;95.30;;;;;;5061018;28;20054;-78
2022/01/25 07:19:59;;;;;;;;;;;0.50;95.30;;;;;;5067453;28;19932;-79
2022/01/25 07:22:26;;;;;;;;;;;0.50;95.30;;;;;;5064138;28;19933;-79
2022/01/25 07:24:52;;;;;;;;;;;0.50;95.30;;;;;;5065662;28;19937;-79
2022/01/25 07:27:19;;;;;;;;;;;0.50;95.30;;;;;;5064806;28;19970;-79
2022/01/25 07:29:47;;;;;;;;;;;0.50;95.30;;;;;;5063221;28;19929;-80
2022/01/25 07:32:13;;;;;;;;;;;0.50;95.30;;;;;;5066637;28;19932;-79
2022/01/25 07:34:40;;;;;;;;;;;0.50;95.40;;;;;;5064564;28;19928;-79
2022/01/25 07:37:06;;;;;;;;;;;0.50;95.30;;;;;;5064423;28;19936;-80
2022/01/25 07:39:33;;;;;;;;;;;0.50;95.30;;;;;;5063680;28;19928;-80
2022/01/25 07:41:59;;;;;;;;;;;0.50;95.40;;;;;;5056015;28;19936;-79
2022/01/25 07:44:30;;;;;;;;;;;0.50;95.40;;;;;;5061474;28;19928;-79
2022/01/25 07:46:58;;;;;;;;;;;0.50;95.40;;;;;;5071441;28;19940;-79
2022/01/25 07:49:25;;;;;;;;;;;0.50;95.40;;;;;;5061074;28;19936;-80
2022/01/25 07:51:51;;;;;;;;;;;0.60;95.50;;;;;;5064710;28;20392;-80
2022/01/25 07:54:18;;;;;;;;;;;0.50;95.50;;;;;;5063473;28;19928;-80
2022/01/25 07:56:44;;;;;;;;;;;0.60;95.50;;;;;;5056319;28;19929;-79
2022/01/25 07:59:11;;;;;;;;;;;0.50;95.50;;;;;;5070017;28;19928;-79
2022/01/25 08:01:38;;;;;;;;;;;0.50;95.50;;;;;;5063412;28;19935;-80
2022/01/25 08:04:06;;;;;;;;;;;0.60;95.50;;;;;;5062637;28;19981;-80
2022/01/25 08:06:32;;;;;;;;;;;0.60;95.50;;;;;;5069468;28;19932;-81
2022/01/25 08:09:00;;;;;;;;;;;0.60;95.50;;;;;;5064846;28;19928;-80
2022/01/25 08:11:26;;;;;;;;;;;0.60;95.50;;;;;;5065284;28;20420;-80
2022/01/25 08:14:00;;;;;;;;;;;0.60;95.50;;;;;;5064966;28;19932;-80
2022/01/25 08:16:26;;;;;;;;;;;0.60;95.50;;;;;;5063711;28;20509;-80
2022/01/25 08:18:53;;;;;;;;;;;0.60;95.50;;;;;;5067247;28;21095;-80
2022/01/25 08:21:21;;;;;;;;;;;0.60;95.50;;;;;;5069173;28;20713;-80
2022/01/25 08:23:47;;;;;;;;;;;0.60;95.50;;;;;;5063473;28;19946;-80
2022/01/25 08:26:14;;;;;;;;;;;0.60;95.50;;;;;;5066547;28;20452;-81
2022/01/25 08:28:41;;;;;;;;;;;0.70;95.50;;;;;;5073636;28;20014;-80
2022/01/25 08:31:07;;;;;;;;;;;0.60;95.50;;;;;;5057431;28;19986;-80
2022/01/25 08:33:34;;;;;;;;;;;0.70;95.50;;;;;;5062040;28;19928;-79
2022/01/25 08:36:00;;;;;;;;;;;0.70;95.50;;;;;;5071529;28;19939;-80
2022/01/25 08:38:28;;;;;;;;;;;0.70;95.50;;;;;;5061144;28;19932;-80
2022/01/25 08:40:54;;;;;;;;;;;0.70;95.60;;;;;;5063108;28;19929;-80
2022/01/25 08:43:22;;;;;;;;;;;0.70;95.50;;;;;;5066310;28;19936;-80
2022/01/25 08:45:48;;;;;;;;;;;0.70;95.60;;;;;;5064132;28;19936;-80
2022/01/25 08:48:15;;;;;;;;;;;0.70;95.50;;;;;;5067910;28;19935;-81
2022/01/25 08:50:41;;;;;;;;;;;0.70;95.50;;;;;;5074990;28;19939;-80
2022/01/25 08:53:09;;;;;;;;;;;0.70;95.50;;;;;;5064230;28;19990;-81
2022/01/25 08:55:37;;;;;;;;;;;0.70;95.50;;;;;;5059432;28;19929;-81
2022/01/25 08:58:03;;;;;;;;;;;0.80;95.60;;;;;;5070801;28;20322;-80
2022/01/25 09:00:30;;;;;;;;;;;0.80;95.60;;;;;;5065254;28;19928;-81
2022/01/25 09:02:56;;;;;;;;;;;0.80;95.50;;;;;;5061932;28;19991;-81
2022/01/25 09:05:23;;;;;;;;;;;0.80;95.50;;;;;;5069880;28;19932;-81
2022/01/25 09:07:50;;;;;;;;;;;0.80;95.60;;;;;;5064846;28;20459;-80
2022/01/25 09:10:16;;;;;;;;;;;0.80;95.60;;;;;;5057900;28;19971;-81
2022/01/25 09:12:44;;;;;;;;;;;0.80;95.60;;;;;;5064340;28;19928;-79
2022/01/25 09:15:11;;;;;;;;;;;0.80;95.60;;;;;;5063678;28;19935;-80
2022/01/25 09:17:37;;;;;;;;;;;0.80;95.60;;;;;;5061460;28;19929;-81
2022/01/25 09:20:05;;;;;;;;;;;0.90;95.80;;;;;;5065479;28;20680;-81
2022/01/25 09:22:31;;;;;;;;;;;0.80;95.70;;;;;;5057830;28;20023;-81
2022/01/25 09:24:58;;;;;;;;;;;0.90;95.70;;;;;;5061640;28;20498;-81
2022/01/25 09:27:24;;;;;;;;;;;0.90;95.70;;;;;;5063433;28;20006;-81
2022/01/25 09:29:52;;;;;;;;;;;0.90;95.70;;;;;;5064397;28;20019;-82
2022/01/25 09:32:19;;;;;;;;;;;0.90;95.80;;;;;;5060728;28;20386;-82
2022/01/25 09:34:46;;;;;;;;;;;0.90;95.80;;;;;;5065562;28;20444;-82
2022/01/25 09:37:13;;;;;;;;;;;0.90;95.80;;;;;;5067404;28;19979;-82
2022/01/25 09:39:39;;;;;;;;;;;0.90;95.80;;;;;;5064871;28;19928;-82
2022/01/25 09:42:08;;;;;;;;;;;0.90;95.80;;;;;;5066653;28;19928;-81
2022/01/25 09:44:36;;;;;;;;;;;0.90;95.80;;;;;;5062006;28;19928;-82
2022/01/25 09:47:04;;;;;;;;;;;0.90;95.80;;;;;;5065714;28;19932;-82
2022/01/25 09:49:31;;;;;;;;;;;0.90;95.80;;;;;;5065662;28;19935;-81
2022/01/25 09:52:00;;;;;;;;;;;1.00;95.90;;;;;;5066504;28;20026;-81
2022/01/25 09:54:26;;;;;;;;;;;1.00;95.80;;;;;;5066705;28;20697;-82
2022/01/25 09:56:53;;;;;;;;;;;1.00;95.80;;;;;;5063709;28;20660;-81
2022/01/25 09:59:20;;;;;;;;;;;1.00;95.80;;;;;;5070962;28;19978;-81
2022/01/25 10:01:46;;;;;;;;;;;1.00;95.80;;;;;;5068459;28;19929;-81
2022/01/25 10:04:27;;;;;;;;;;;1.00;95.80;;;;;;5065433;28;19932;-82
2022/01/25 10:06:54;;;;;;;;;;;1.00;95.90;;;;;;5071654;28;19957;-81
2022/01/25 10:09:21;;;;;;;;;;;1.00;96.10;;;;;;5065758;28;19928;-82
2022/01/25 10:11:49;;;;;;;;;;;1.10;95.80;;;;;;5069707;28;20419;-81
2022/01/25 10:14:16;;;;;;;;;;;1.10;95.80;;;;;;5068221;28;20309;-81
2022/01/25 10:16:43;;;;;;;;;;;1.10;95.80;;;;;;5065917;28;19935;-81
2022/01/25 10:19:12;;;;;;;;;;;1.10;95.80;;;;;;5062632;28;20032;-80
2022/01/25 10:21:40;;;;;;;;;;;1.10;95.80;;;;;;5071879;28;20575;-82
2022/01/25 10:24:08;;;;;;;;;;;1.10;95.80;;;;;;5064581;28;19936;-80
2022/01/25 10:26:36;;;;;;;;;;;1.10;95.80;;;;;;5063578;28;19933;-81
2022/01/25 10:29:03;;;;;;;;;;;1.20;95.80;;;;;;5063173;28;19929;-81
2022/01/25 10:31:33;;;;;;;;;;;1.20;95.80;;;;;;5062993;28;20006;-81
2022/01/25 10:34:00;;;;;;;;;;;1.20;95.80;;;;;;5065213;28;19939;-82
2022/01/25 10:36:26;;;;;;;;;;;1.20;95.70;;;;;;5065621;28;19935;-80
2022/01/25 10:38:56;;;;;;;;;;;1.20;95.70;;;;;;5067319;28;19937;-80
2022/01/25 10:41:24;;;;;;;;;;;1.20;95.70;;;;;;5065049;28;20017;-80
2022/01/25 10:43:51;;;;;;;;;;;1.30;95.80;;;;;;5063877;28;20001;-81
2022/01/25 10:46:22;;;;;;;;;;;1.30;96.10;;;;;;5074765;28;20197;-81
2022/01/25 10:48:50;;;;;;;;;;;1.30;95.80;;;;;;5061754;28;20009;-81
2022/01/25 10:51:18;;;;;;;;;;;1.30;95.80;;;;;;5064874;28;19928;-81
2022/01/25 10:53:45;;;;;;;;;;;1.30;95.80;;;;;;5063834;28;19939;-81
2022/01/25 10:56:13;;;;;;;;;;;1.30;95.80;;;;;;5061818;28;19928;-80
2022/01/25 10:58:41;;;;;;;;;;;1.30;95.80;;;;;;5061570;28;19935;-81
2022/01/25 11:01:10;;;;;;;;;;;1.30;95.80;;;;;;5066141;28;20315;-81
2022/01/25 11:03:38;;;;;;;;;;;1.30;95.80;;;;;;5067389;28;19928;-80
2022/01/25 11:06:14;;;;;;;;;;;1.30;95.80;;;;;;5069030;28;21281;-81
2022/01/25 11:08:41;;;;;;;;;;;1.30;95.80;;;;;;5069038;28;19932;-81
2022/01/25 11:11:10;;;;;;;;;;;1.30;95.80;;;;;;5063634;28;20385;-81
2022/01/25 11:13:42;;;;;;;;;;;1.40;95.80;;;;;;5068827;28;20301;-81
2022/01/25 11:16:09;;;;;;;;;;;1.40;95.80;;;;;;5052192;28;20038;-80
2022/01/25 11:18:36;;;;;;;;;;;1.40;95.80;;;;;;5058124;28;19929;-81
2022/01/25 11:21:04;;;;;;;;;;;1.40;95.80;;;;;;5068169;28;19928;-81
2022/01/25 11:23:32;;;;;;;;;;;1.40;95.80;;;;;;5063191;28;19936;-81
2022/01/25 11:25:59;;;;;;;;;;;1.40;95.80;;;;;;5062608;28;19929;-80
2022/01/25 11:28:26;;;;;;;;;;;1.50;95.90;;;;;;5059998;28;19940;-79
2022/01/25 11:30:54;;;;;;;;;;;1.50;95.80;;;;;;5069284;28;20577;-81
2022/01/25 11:33:21;;;;;;;;;;;1.50;95.80;;;;;;5061988;28;19937;-79
2022/01/25 11:35:49;;;;;;;;;;;1.50;95.80;;;;;;5061456;28;20823;-80
2022/01/25 11:38:15;;;;;;;;;;;1.50;95.80;;;;;;5061433;28;20478;-81
2022/01/25 11:40:45;;;;;;;;;;;1.50;95.70;;;;;;5063112;28;19928;-81
2022/01/25 11:43:13;;;;;;;;;;;1.60;95.70;;;;;;5065519;28;19927;-80
2022/01/25 11:45:41;;;;;;;;;;;1.60;95.70;;;;;;5070710;28;20256;-82
2022/01/25 11:48:09;;;;;;;;;;;1.60;95.60;;;;;;5063460;28;19936;-81
2022/01/25 11:50:37;;;;;;;;;;;1.60;95.60;;;;;;5072327;28;19974;-82
2022/01/25 11:53:07;;;;;;;;;;;1.60;95.50;;;;;;5063042;28;19933;-81
2022/01/25 11:55:35;;;;;;;;;;;1.60;95.50;;;;;;5066526;28;20704;-81
2022/01/25 11:58:04;;;;;;;;;;;1.70;95.60;;;;;;5065253;28;20073;-82
2022/01/25 12:00:41;;;;;;;;;;;1.70;95.50;;;;;;5065262;28;20349;-82
2022/01/25 12:03:23;;;;;;;;;;;1.70;95.50;;;;;;5063235;28;20387;-82
2022/01/25 12:05:54;;;;;;;;;;;1.70;95.40;;;;;;5064796;28;19936;-82
2022/01/25 12:08:27;;;;;;;;;;;1.80;95.40;;;;;;5066237;28;19928;-80
2022/01/25 12:11:04;;;;;;;;;;;1.80;95.30;;;;;;5062613;28;19932;-81
2022/01/25 12:13:32;;;;;;;;;;;1.80;95.40;;;;;;5063352;28;20404;-83
2022/01/25 12:16:17;;;;;;;;;;;1.80;95.40;;;;;;5063787;28;19939;-81
2022/01/25 12:18:55;;;;;;;;;;;1.80;95.40;;;;;;5060336;28;19943;-81
2022/01/25 12:21:40;;;;;;;;;;;1.90;95.40;;;;;;5067251;28;19928;-81
2022/01/25 12:24:17;;;;;;;;;;;1.80;95.30;;;;;;5065172;28;19935;-80
2022/01/25 12:27:01;;;;;;;;;;;1.90;95.30;;;;;;5070936;28;19936;-81
2022/01/25 12:29:36;;;;;;;;;;;1.90;95.30;;;;;;5062571;28;19928;-82
2022/01/25 12:32:20;;;;;;;;;;;1.90;95.30;;;;;;5065234;28;19994;-81
2022/01/25 12:35:13;;;;;;;;;;;1.90;95.20;;;;;;5063761;28;19934;-81
2022/01/25 12:37:58;;;;;;;;;;;2.00;95.30;;;;;;5060485;28;19933;-81
2022/01/25 12:40:35;;;;;;;;;;;2.00;95.20;;;;;;5063176;28;20369;-80
2022/01/25 12:43:04;;;;;;;;;;;2.00;95.20;;;;;;5064432;28;20086;-81
2022/01/25 12:45:32;;;;;;;;;;;2.00;95.20;;;;;;5063092;28;19929;-81
2022/01/25 12:47:59;;;;;;;;;;;2.00;95.20;;;;;;5064858;28;20516;-80
2022/01/25 12:50:27;;;;;;;;;;;2.00;95.20;;;;;;5074019;28;19932;-80
2022/01/25 12:52:53;;;;;;;;;;;2.10;95.20;;;;;;5063122;28;20343;-80
2022/01/25 12:55:24;;;;;;;;;;;2.10;95.20;;;;;;5061258;28;19929;-80
2022/01/25 12:57:54;;;;;;;;;;;2.10;95.20;;;;;;5064639;28;19929;-80
2022/01/25 13:00:21;;;;;;;;;;;2.10;95.20;;;;;;5059769;28;19929;-80
2022/01/25 13:02:47;;;;;;;;;;;2.10;95.20;;;;;;5061656;28;19983;-79
2022/01/25 13:05:15;;;;;;;;;;;2.20;95.30;;;;;;5070992;28;20433;-82
2022/01/25 13:07:41;;;;;;;;;;;2.10;95.20;;;;;;5061920;28;20350;-81
2022/01/25 13:10:10;;;;;;;;;;;2.10;95.20;;;;;;5059554;28;19929;-80
2022/01/25 13:12:47;;;;;;;;;;;2.20;95.30;;;;;;5063153;28;19939;-82
2022/01/25 13:15:39;;;;;;;;;;;2.20;95.30;;;;;;5065787;28;19933;-81
2022/01/25 13:18:10;;;;;;;;;;;2.20;95.30;;;;;;5064987;28;19929;-81
2022/01/25 13:20:37;;;;;;;;;;;2.20;95.30;;;;;;5064463;28;20013;-80
2022/01/25 13:23:03;;;;;;;;;;;2.20;95.30;;;;;;5068120;28;20346;-80
2022/01/25 13:25:34;;;;;;;;;;;2.20;95.30;;;;;;5066399;28;20709;-81
2022/01/25 13:28:13;;;;;;;;;;;2.30;95.30;;;;;;5064583;28;19928;-81
2022/01/25 13:30:43;;;;;;;;;;;2.30;95.30;;;;;;5070903;28;19935;-80
2022/01/25 13:33:11;;;;;;;;;;;2.30;95.30;;;;;;5065534;28;19958;-80
2022/01/25 13:35:40;;;;;;;;;;;2.30;95.30;;;;;;5059232;28;20344;-81
2022/01/25 13:38:08;;;;;;;;;;;2.30;95.30;;;;;;5070611;28;20022;-80
2022/01/25 13:40:45;;;;;;;;;;;2.30;95.30;;;;;;5064891;28;19928;-80
2022/01/25 13:43:31;;;;;;;;;;;2.40;95.30;;;;;;5068912;28;19928;-80
2022/01/25 13:46:00;;;;;;;;;;;2.30;95.30;;;;;;5068268;28;20495;-80
2022/01/25 13:48:29;;;;;;;;;;;2.40;95.30;;;;;;5064974;28;19951;-79
2022/01/25 13:50:57;;;;;;;;;;;2.40;95.30;;;;;;5062643;28;19928;-79
2022/01/25 13:53:25;;;;;;;;;;;2.40;95.20;;;;;;5064049;28;19939;-80
2022/01/25 13:55:52;;;;;;;;;;;2.40;95.20;;;;;;5061984;28;20273;-80
2022/01/25 13:58:23;;;;;;;;;;;2.40;95.20;;;;;;5056618;28;19932;-80
2022/01/25 14:00:50;;;;;;;;;;;2.40;95.20;;;;;;5066340;28;20210;-80
2022/01/25 14:03:18;;;;;;;;;;;2.40;95.10;;;;;;5068506;28;19936;-80
2022/01/25 14:05:45;;;;;;;;;;;2.40;95.00;;;;;;5062265;28;19928;-80
2022/01/25 14:08:12;;;;;;;;;;;2.50;95.10;;;;;;5061779;28;19970;-80
2022/01/25 14:10:43;;;;;;;;;;;2.50;95.00;;;;;;5063236;28;19932;-80
2022/01/25 14:21:55;;;;;;;;;;;2.50;95.00;;;;;;5071829;28;19939;-81
2022/01/25 14:24:29;;;;;;;;;;;2.50;95.00;;;;;;5063944;28;20098;-81
2022/01/25 14:26:57;;;;;;;;;;;2.50;94.90;;;;;;5066085;28;19928;-80
2022/01/25 14:29:24;;;;;;;;;;;2.50;94.90;;;;;;5062650;28;19938;-80
2022/01/25 14:31:51;;;;;;;;;;;2.50;94.90;;;;;;5061176;28;20354;-80
2022/01/25 14:34:20;;;;;;;;;;;2.50;95.00;;;;;;5065734;28;19934;-80
2022/01/25 14:36:48;;;;;;;;;;;2.50;94.90;;;;;;5066016;28;19982;-80
2022/01/25 14:39:14;;;;;;;;;;;2.50;95.10;;;;;;5060136;28;20379;-80
2022/01/25 14:41:41;;;;;;;;;;;2.60;95.20;;;;;;5065312;28;20015;-80
2022/01/25 14:44:09;;;;;;;;;;;2.60;95.10;;;;;;5073659;28;19935;-79
2022/01/25 14:46:36;;;;;;;;;;;2.60;95.00;;;;;;5061617;28;19928;-81
2022/01/25 14:49:07;;;;;;;;;;;2.60;95.00;;;;;;5073558;28;19928;-80
2022/01/25 14:51:36;;;;;;;;;;;2.60;94.90;;;;;;5065047;28;19929;-81
2022/01/25 14:54:04;;;;;;;;;;;2.60;94.90;;;;;;5064545;28;19943;-80
2022/01/25 14:56:31;;;;;;;;;;;2.60;95.00;;;;;;5059583;28;19939;-77
2022/01/25 15:01:47;;;;;;;;;;;2.70;95.10;;;;;;5059426;28;19935;-78
2022/01/25 15:04:14;;;;;;;;;;;2.80;95.20;;;;;;5066540;28;19977;-78
2022/01/25 15:06:42;;;;;;;;;;;2.90;95.20;;;;;;5068799;28;19928;-77
2022/01/25 15:09:09;;;;;;;;;;;3.00;95.10;;;;;;5070039;28;20450;-78
2022/01/25 15:11:35;;;;;;;;;;;3.10;95.00;;;;;;5066636;28;20400;-78
2022/01/25 15:14:08;;;;;;;;;;;3.20;94.90;;;;;;5058469;28;19928;-78
2022/01/25 15:16:35;;;;;;;;;;;3.30;94.70;;;;;;5060984;28;19940;-79
2022/01/25 15:19:01;;;;;;;;;;;3.30;94.60;;;;;;5066453;28;19932;-78
2022/01/25 15:21:28;;;;;;;;;;;3.40;94.50;;;;;;5069837;28;19928;-78
2022/01/25 15:23:56;;;;;;;;;;;3.50;94.30;;;;;;5073052;28;20498;-77
2022/01/25 15:26:24;;;;;;;;;;;3.50;94.20;;;;;;5069875;28;20015;-78
2022/01/25 15:28:55;;;;;;;;;;;3.60;94.10;;;;;;5059815;28;19928;-77
2022/01/25 15:31:22;;;;;;;;;;;3.60;94.00;;;;;;5067160;28;19928;-78
2022/01/25 15:33:49;;;;;;;;;;;3.70;93.90;;;;;;5060341;28;20393;-78
2022/01/25 15:36:16;;;;;;;;;;;3.70;93.80;;;;;;5066044;28;20145;-78
2022/01/25 15:38:43;;;;;;;;;;;3.70;94.10;;;;;;5064302;28;20235;-78
2022/01/25 15:41:12;;;;;;;;;;;3.80;93.70;;;;;;5063593;28;19924;-78
2022/01/25 15:43:48;;;;;;;;;;;3.80;93.60;;;;;;5063024;28;19928;-78
2022/01/25 15:46:24;;;;;;;;;;;3.90;93.60;;;;;;5060092;28;19929;-77
2022/01/25 15:48:50;;;;;;;;;;;3.90;93.50;;;;;;5063099;28;20312;-78
2022/01/25 15:51:17;;;;;;;;;;;3.80;93.50;;;;;;5063781;28;19951;-78
2022/01/25 15:53:43;;;;;;;;;;;3.90;93.50;;;;;;5067612;28;19932;-78
2022/01/25 15:56:11;;;;;;;;;;;3.90;93.40;;;;;;5060658;28;19990;-76
2022/01/25 15:58:38;;;;;;;;;;;3.90;93.30;;;;;;5066343;28;20009;-78
2022/01/25 16:01:06;;;;;;;;;;;3.90;93.30;;;;;;5055353;28;19935;-78
2022/01/25 16:03:32;;;;;;;;;;;4.00;93.30;;;;;;5061142;28;20456;-78
2022/01/25 16:06:00;;;;;;;;;;;3.90;93.20;;;;;;5063492;28;19932;-78
2022/01/25 16:08:26;;;;;;;;;;;4.00;93.20;;;;;;5063732;28;20514;-78